Time;durP1;ratioP1;P1;durP2;ratioP2;P2;SDS_P1;SDS_P2;PMS_P1;PMS_P2;Temp;Humidity;BMP_temperature;BMP_pressure;BME280_temperature;BME280_humidity;BME280_pressure;Samples;Min_cycle;Max_cycle;Signal;HPM_P1;HPM_P2
2021/06/10 00:00:26;;;;;;;51.78;31.06;;;;;;;16.20;77.20;100043.14;440014;119;924142;-66
2021/06/10 00:01:31;;;;;;;52.12;34.03;;;;;;;16.21;77.19;100039.27;439737;119;932750;-67
2021/06/10 00:02:35;;;;;;;63.98;39.07;;;;;;;16.21;77.21;100041.19;447422;116;922938;-67
2021/06/10 00:03:38;;;;;;;80.01;48.00;;;;;;;16.21;77.26;100036.52;439811;118;924568;-65
2021/06/10 00:04:42;;;;;;;84.98;49.61;;;;;;;16.21;77.15;100035.69;435734;121;924237;-66
2021/06/10 00:05:48;;;;;;;78.86;49.68;;;;;;;16.21;77.02;100038.44;434153;121;924716;-66
2021/06/10 00:06:52;;;;;;;84.58;52.41;;;;;;;16.20;77.14;100036.81;434106;121;923923;-66
2021/06/10 00:07:56;;;;;;;88.26;53.38;;;;;;;16.19;77.17;100032.39;433645;121;926386;-65
2021/06/10 00:09:00;;;;;;;95.20;57.08;;;;;;;16.19;77.11;100035.14;437057;120;922818;-65
2021/06/10 00:10:10;;;;;;;100.06;57.29;;;;;;;16.19;77.18;100030.47;436789;121;930248;-65
2021/06/10 00:11:14;;;;;;;97.49;55.69;;;;;;;16.19;77.16;100035.14;431709;123;922996;-65
2021/06/10 00:12:19;;;;;;;90.59;55.92;;;;;;;16.17;77.11;100029.90;433326;121;922696;-66
2021/06/10 00:13:22;;;;;;;99.54;56.67;;;;;;;16.15;77.14;100034.83;433028;119;923013;-67
2021/06/10 00:14:26;;;;;;;92.91;57.85;;;;;;;16.15;77.27;100034.83;433121;121;922423;-66
2021/06/10 00:15:32;;;;;;;91.97;56.81;;;;;;;16.16;77.38;100027.41;431402;121;922449;-66
2021/06/10 00:16:36;;;;;;;86.62;54.26;;;;;;;16.17;77.42;100035.40;435990;121;922484;-66
2021/06/10 00:17:40;;;;;;;89.43;55.02;;;;;;;16.18;77.50;100030.73;436387;121;922997;-65
2021/06/10 00:18:48;;;;;;;94.36;53.49;;;;;;;16.20;77.56;100040.39;425020;123;922775;-65
2021/06/10 00:19:50;;;;;;;84.92;51.69;;;;;;;16.21;77.39;100031.02;435630;118;922739;-67
2021/06/10 00:20:53;;;;;;;75.75;45.84;;;;;;;16.23;77.38;100039.02;444560;118;922464;-65
2021/06/10 00:21:57;;;;;;;71.25;41.62;;;;;;;16.23;77.34;100036.27;444903;118;930459;-66
2021/06/10 00:23:01;;;;;;;65.62;39.75;;;;;;;16.22;77.25;100035.43;445489;117;930580;-65
2021/06/10 00:24:06;;;;;;;59.39;38.39;;;;;;;16.21;77.17;100031.02;444930;118;922619;-65
2021/06/10 00:25:11;;;;;;;54.95;34.15;;;;;;;16.20;77.22;100032.13;446320;118;923034;-67
2021/06/10 00:26:15;;;;;;;53.57;32.78;;;;;;;16.19;77.31;100035.97;444914;118;930613;-66
2021/06/10 00:27:23;;;;;;;50.09;32.92;;;;;;;16.20;77.37;100034.05;441459;118;923923;-67
2021/06/10 00:28:31;;;;;;;52.83;34.27;;;;;;;16.22;77.47;100031.84;444924;117;923972;-67
2021/06/10 00:29:35;;;;;;;45.80;31.18;;;;;;;16.23;77.45;100039.84;442453;118;931978;-66
2021/06/10 00:30:39;;;;;;;46.20;30.22;;;;;;;16.24;77.42;100036.00;443598;118;922765;-67
2021/06/10 00:31:43;;;;;;;29.85;23.65;;;;;;;16.26;77.34;100041.25;441052;118;931812;-66
2021/06/10 00:32:49;;;;;;;23.24;20.87;;;;;;;16.25;77.20;100036.84;442948;118;922486;-65
2021/06/10 00:33:53;;;;;;;24.89;21.27;;;;;;;16.23;77.02;100039.02;442264;118;926622;-64
2021/06/10 00:34:56;;;;;;;25.98;20.63;;;;;;;16.20;76.96;100037.64;444101;118;924528;-65
2021/06/10 00:36:00;;;;;;;23.37;20.26;;;;;;;16.17;76.94;100040.07;445142;118;924854;-66
2021/06/10 00:37:04;;;;;;;34.39;23.94;;;;;;;16.14;76.98;100037.86;443216;116;930429;-65
2021/06/10 00:38:09;;;;;;;34.88;24.68;;;;;;;16.09;76.99;100035.08;446301;118;925661;-65
2021/06/10 00:39:14;;;;;;;27.11;22.94;;;;;;;16.06;77.07;100033.67;438150;120;922818;-66
2021/06/10 00:40:19;;;;;;;27.62;24.17;;;;;;;16.03;77.13;100038.88;440187;118;926147;-67
2021/06/10 00:41:24;;;;;;;30.26;23.54;;;;;;;16.01;77.29;100041.05;441360;118;924031;-67
2021/06/10 00:42:29;;;;;;;34.94;24.86;;;;;;;15.99;77.48;100035.81;444173;118;925744;-67
2021/06/10 00:43:32;;;;;;;28.17;23.64;;;;;;;16.00;77.61;100029.22;444491;117;925768;-67
2021/06/10 00:44:36;;;;;;;27.74;23.72;;;;;;;16.01;77.69;100030.05;441659;118;925755;-66
2021/06/10 00:45:40;;;;;;;28.20;22.84;;;;;;;16.02;77.79;100035.30;442591;118;924763;-67
2021/06/10 00:46:45;;;;;;;29.61;24.28;;;;;;;16.04;77.80;100030.37;440849;118;925422;-67
2021/06/10 00:47:50;;;;;;;33.64;25.76;;;;;;;16.06;77.78;100033.67;441927;118;924039;-68
2021/06/10 00:48:54;;;;;;;28.57;24.44;;;;;;;16.09;77.74;100037.83;442193;118;922858;-67
2021/06/10 00:49:58;;;;;;;27.14;24.24;;;;;;;16.10;77.62;100033.95;441341;118;925590;-66
2021/06/10 00:51:03;;;;;;;29.43;25.06;;;;;;;16.08;77.57;100031.50;439820;118;924468;-65
2021/06/10 00:52:07;;;;;;;30.46;23.84;;;;;;;16.08;77.50;100034.25;441315;118;924305;-65
2021/06/10 00:53:21;;;;;;;23.38;20.99;;;;;;;16.08;77.40;100033.41;443538;117;923198;-66
2021/06/10 00:54:18;;;;;;;24.20;21.72;;;;;;;16.07;77.39;100038.08;442095;118;930498;-66
2021/06/10 00:55:21;;;;;;;25.51;20.47;;;;;;;16.06;77.44;100039.17;445338;118;923250;-67
2021/06/10 00:56:26;;;;;;;23.15;20.85;;;;;;;16.05;77.43;100036.67;444268;118;923394;-68
2021/06/10 00:57:30;;;;;;;23.58;21.02;;;;;;;16.03;77.40;100038.88;442764;118;930434;-66
2021/06/10 00:58:33;;;;;;;23.13;20.69;;;;;;;16.03;77.38;100030.63;445178;118;925491;-66
2021/06/10 00:59:37;;;;;;;28.14;20.69;;;;;;;16.01;77.34;100030.05;443992;118;930725;-66
2021/06/10 01:00:42;;;;;;;22.73;20.48;;;;;;;16.00;77.37;100029.22;443592;118;922799;-68
2021/06/10 01:01:47;;;;;;;25.26;19.74;;;;;;;15.99;77.50;100035.01;445279;118;923077;-67
2021/06/10 01:02:52;;;;;;;21.52;19.24;;;;;;;15.98;77.60;100031.42;446954;118;922512;-67
2021/06/10 01:03:56;;;;;;;20.14;17.93;;;;;;;15.98;77.45;100036.92;444586;118;922856;-65
2021/06/10 01:05:00;;;;;;;19.67;17.62;;;;;;;15.98;77.49;100039.67;443365;118;930562;-65
2021/06/10 01:06:07;;;;;;;21.62;19.65;;;;;;;15.97;77.59;100032.52;441826;118;930733;-67
2021/06/10 01:07:26;;;;;;;22.89;20.66;;;;;;;15.98;77.63;100027.84;416504;125;923153;-66
2021/06/10 01:08:55;;;;;;;21.25;19.25;;;;;;;15.99;77.70;100030.31;436293;118;923045;-65
2021/06/10 01:10:02;;;;;;;20.04;17.01;;;;;;;16.00;77.78;100028.39;443332;118;922372;-65
2021/06/10 01:11:14;;;;;;;16.74;15.12;;;;;;;16.02;77.81;100026.22;446421;118;922976;-67
2021/06/10 01:12:43;;;;;;;17.49;15.26;;;;;;;16.02;77.79;100027.05;434194;118;923263;-65
2021/06/10 01:14:02;;;;;;;16.29;14.67;;;;;;;16.04;77.70;100024.88;443640;118;922641;-67
2021/06/10 01:15:14;;;;;;;14.62;13.14;;;;;;;16.05;77.64;100026.51;443691;118;922732;-66
2021/06/10 01:16:21;;;;;;;15.69;13.83;;;;;;;16.05;77.39;100026.51;447045;118;922524;-65
2021/06/10 01:17:27;;;;;;;13.93;12.62;;;;;;;16.07;77.29;100023.50;445545;118;925380;-65
2021/06/10 01:18:31;;;;;;;14.14;12.68;;;;;;;16.05;77.13;100032.00;442176;118;924136;-67
2021/06/10 01:19:45;;;;;;;18.93;16.75;;;;;;;16.04;77.06;100030.37;444674;118;924195;-66
2021/06/10 01:20:50;;;;;;;17.94;14.57;;;;;;;16.03;76.99;100022.38;442094;118;924025;-65
2021/06/10 01:21:57;;;;;;;16.23;14.84;;;;;;;16.00;76.90;100022.89;443443;118;926791;-67
2021/06/10 01:23:08;;;;;;;17.11;15.32;;;;;;;15.97;76.86;100028.93;444542;117;925105;-66
2021/06/10 01:24:15;;;;;;;17.02;15.35;;;;;;;15.93;76.86;100033.31;442061;118;924045;-67
2021/06/10 01:25:26;;;;;;;17.62;15.67;;;;;;;15.88;76.92;100031.32;443350;118;932001;-65
2021/06/10 01:26:40;;;;;;;18.25;16.54;;;;;;;15.83;76.98;100032.11;444242;118;927378;-68
2021/06/10 01:27:47;;;;;;;18.41;16.66;;;;;;;15.78;77.02;100033.99;442003;118;925493;-66
2021/06/10 01:28:52;;;;;;;18.37;16.54;;;;;;;15.74;77.12;100030.12;442317;118;925751;-66
2021/06/10 01:30:09;;;;;;;19.39;17.46;;;;;;;15.71;77.38;100030.66;442085;118;924178;-64
2021/06/10 01:31:14;;;;;;;18.94;17.12;;;;;;;15.71;77.57;100027.91;444374;118;924037;-66
2021/06/10 01:32:19;;;;;;;19.23;17.46;;;;;;;15.71;77.67;100027.91;441772;118;924322;-65
2021/06/10 01:33:27;;;;;;;18.62;16.90;;;;;;;15.72;77.61;100029.54;443636;118;924962;-66
2021/06/10 01:34:31;;;;;;;18.47;16.78;;;;;;;15.72;77.66;100027.63;442734;118;925678;-65
2021/06/10 01:35:39;;;;;;;19.91;18.11;;;;;;;15.74;77.54;100024.63;444564;118;925402;-66
2021/06/10 01:36:45;;;;;;;18.59;16.76;;;;;;;15.73;77.53;100022.95;443636;118;924040;-67
2021/06/10 01:37:52;;;;;;;19.32;17.57;;;;;;;15.73;77.58;100028.45;441677;118;923173;-67
2021/06/10 01:39:00;;;;;;;20.05;17.12;;;;;;;15.72;77.60;100024.05;442070;118;923139;-66
2021/06/10 01:40:07;;;;;;;17.67;15.84;;;;;;;15.72;77.63;100022.12;446363;118;925396;-67
2021/06/10 01:41:12;;;;;;;16.81;14.97;;;;;;;15.72;77.68;100024.88;444843;118;924884;-64
2021/06/10 01:42:16;;;;;;;14.65;13.34;;;;;;;15.72;77.62;100024.05;441522;118;926010;-67
2021/06/10 01:43:23;;;;;;;11.96;10.95;;;;;;;15.72;77.56;100024.88;442095;118;931791;-66
2021/06/10 01:44:28;;;;;;;11.00;10.08;;;;;;;15.72;77.57;100029.54;443890;118;924160;-67
2021/06/10 01:45:33;;;;;;;11.38;10.42;;;;;;;15.70;77.64;100032.58;443110;118;924098;-65
2021/06/10 01:46:39;;;;;;;15.26;12.27;;;;;;;15.71;77.89;100030.66;441480;118;924089;-66
2021/06/10 01:47:46;;;;;;;17.06;13.92;;;;;;;15.73;77.96;100039.45;444966;118;922825;-64
2021/06/10 01:48:49;;;;;;;15.28;13.82;;;;;;;15.74;78.03;100035.62;446171;117;926227;-67
2021/06/10 01:49:56;;;;;;;16.36;13.34;;;;;;;15.78;78.10;100039.49;441046;118;922602;-66
2021/06/10 01:51:03;;;;;;;11.98;9.97;;;;;;;15.81;78.10;100038.98;444164;118;927010;-66
2021/06/10 01:52:07;;;;;;;9.27;8.39;;;;;;;15.85;78.00;100042.86;441274;118;924857;-67
2021/06/10 01:53:14;;;;;;;9.80;8.85;;;;;;;15.84;77.80;100036.53;443687;118;923260;-67
2021/06/10 01:54:18;;;;;;;9.17;8.48;;;;;;;15.85;77.64;100037.36;436457;121;924120;-67
2021/06/10 01:55:25;;;;;;;8.14;7.45;;;;;;;15.84;77.43;100035.70;432755;121;922499;-67
2021/06/10 01:56:33;;;;;;;8.15;7.37;;;;;;;15.81;77.35;100037.06;434878;121;922899;-67
2021/06/10 01:57:39;;;;;;;7.86;7.09;;;;;;;15.78;77.34;100037.58;432215;121;922476;-67
2021/06/10 01:58:45;;;;;;;8.22;7.48;;;;;;;15.76;77.39;100036.20;432571;121;922937;-67
2021/06/10 01:59:50;;;;;;;8.45;7.71;;;;;;;15.75;77.51;100026.28;432383;121;922531;-66
2021/06/10 02:00:55;;;;;;;9.46;8.57;;;;;;;15.73;77.65;100037.53;433241;121;922945;-65
2021/06/10 02:02:04;;;;;;;9.23;8.42;;;;;;;15.73;77.80;100029.29;435030;121;922999;-66
2021/06/10 02:03:09;;;;;;;12.45;8.42;;;;;;;15.76;77.92;100034.28;430752;121;922488;-67
2021/06/10 02:04:14;;;;;;;10.19;7.94;;;;;;;15.79;77.93;100032.91;431884;121;923187;-66
2021/06/10 02:05:20;;;;;;;8.48;7.77;;;;;;;15.80;77.81;100035.41;434309;121;922832;-67
2021/06/10 02:06:26;;;;;;;8.58;7.92;;;;;;;15.81;77.66;100041.73;432144;121;922474;-66
2021/06/10 02:07:30;;;;;;;8.48;7.73;;;;;;;15.80;77.57;100040.07;432661;121;923058;-67
2021/06/10 02:08:33;;;;;;;10.71;9.68;;;;;;;15.79;77.50;100043.91;433410;121;923001;-65
2021/06/10 02:09:38;;;;;;;12.71;11.21;;;;;;;15.75;77.41;100038.11;434199;121;924177;-66
2021/06/10 02:10:46;;;;;;;10.43;9.26;;;;;;;15.72;77.39;100043.28;431864;121;924125;-66
2021/06/10 02:11:50;;;;;;;12.51;10.77;;;;;;;15.68;77.36;100044.91;433485;121;922767;-67
2021/06/10 02:12:55;;;;;;;12.28;11.02;;;;;;;15.64;77.37;100047.36;432646;121;922448;-68
2021/06/10 02:14:00;;;;;;;12.92;11.66;;;;;;;15.61;77.25;100047.03;431884;121;922437;-68
2021/06/10 02:15:07;;;;;;;13.86;12.54;;;;;;;15.55;77.21;100048.09;434950;121;927163;-67
2021/06/10 02:16:12;;;;;;;12.91;11.78;;;;;;;15.50;77.40;100048.82;426082;123;925222;-66
2021/06/10 02:17:17;;;;;;;13.34;12.14;;;;;;;15.47;77.51;100046.61;429777;121;924116;-65
2021/06/10 02:18:22;;;;;;;12.84;11.52;;;;;;;15.43;77.56;100049.06;434990;121;924033;-66
2021/06/10 02:19:26;;;;;;;15.60;13.01;;;;;;;15.42;77.66;100043.81;436516;121;923122;-67
2021/06/10 02:20:30;;;;;;;14.31;12.84;;;;;;;15.38;77.85;100048.98;431696;121;925576;-67
2021/06/10 02:21:34;;;;;;;14.75;13.26;;;;;;;15.37;77.89;100041.02;434444;121;931708;-66
2021/06/10 02:22:39;;;;;;;15.08;12.51;;;;;;;15.33;77.95;100043.44;433210;121;922848;-67
2021/06/10 02:23:45;;;;;;;15.10;13.72;;;;;;;15.32;78.08;100046.46;434762;121;932275;-65
2021/06/10 02:24:49;;;;;;;14.84;13.31;;;;;;;15.30;78.19;100043.13;433821;122;922692;-67
2021/06/10 02:25:53;;;;;;;15.24;13.20;;;;;;;15.29;78.30;100050.54;430227;123;925514;-65
2021/06/10 02:26:57;;;;;;;23.19;14.05;;;;;;;15.28;78.36;100059.03;424729;123;922831;-66
2021/06/10 02:28:03;;;;;;;15.77;14.18;;;;;;;15.27;78.45;100057.39;426403;123;924238;-67
2021/06/10 02:29:08;;;;;;;16.71;14.07;;;;;;;15.26;78.53;100055.73;425075;123;924081;-65
2021/06/10 02:30:15;;;;;;;16.23;14.24;;;;;;;15.24;78.62;100052.41;431432;121;924064;-67
2021/06/10 02:31:19;;;;;;;15.97;14.42;;;;;;;15.24;78.71;100053.23;431135;121;924171;-66
2021/06/10 02:32:23;;;;;;;13.80;12.52;;;;;;;15.23;78.79;100043.33;433336;121;924551;-68
2021/06/10 02:33:27;;;;;;;14.23;12.84;;;;;;;15.23;78.90;100051.57;432235;121;924217;-65
2021/06/10 02:34:32;;;;;;;15.96;13.35;;;;;;;15.24;78.99;100046.91;431101;121;932514;-67
2021/06/10 02:35:36;;;;;;;14.71;13.16;;;;;;;15.25;79.04;100051.32;432938;121;930332;-66
2021/06/10 02:36:41;;;;;;;14.38;12.93;;;;;;;15.27;79.12;100049.16;432308;121;922830;-66
2021/06/10 02:37:48;;;;;;;13.56;12.34;;;;;;;15.29;79.23;100053.29;431128;121;922582;-65
2021/06/10 02:38:55;;;;;;;13.62;12.03;;;;;;;15.32;79.29;100052.79;431089;121;923001;-67
2021/06/10 02:40:02;;;;;;;12.81;10.93;;;;;;;15.35;79.40;100055.00;431175;121;923972;-68
2021/06/10 02:41:07;;;;;;;11.72;10.76;;;;;;;15.40;79.46;100052.30;435674;121;923935;-67
2021/06/10 02:42:12;;;;;;;12.50;11.40;;;;;;;15.45;79.55;100046.03;437667;121;924104;-66
2021/06/10 02:43:17;;;;;;;11.89;10.78;;;;;;;15.50;79.51;100051.57;437337;119;923226;-65
2021/06/10 02:44:26;;;;;;;15.17;11.05;;;;;;;15.54;79.44;100049.19;433131;121;925566;-66
2021/06/10 02:45:31;;;;;;;11.22;10.21;;;;;;;15.58;79.37;100045.65;431346;121;924099;-67
2021/06/10 02:46:41;;;;;;;12.42;11.23;;;;;;;15.62;79.30;100043.20;431282;121;922625;-66
2021/06/10 02:47:46;;;;;;;11.54;10.38;;;;;;;15.66;79.34;100047.91;432366;119;924101;-66
2021/06/10 02:48:53;;;;;;;11.41;10.08;;;;;;;15.70;79.33;100045.48;434179;121;925151;-65
2021/06/10 02:49:58;;;;;;;10.82;9.69;;;;;;;15.75;79.30;100037.28;424483;123;924037;-66
2021/06/10 02:51:03;;;;;;;10.41;9.41;;;;;;;15.79;79.25;100039.23;430596;123;922796;-67
2021/06/10 02:52:08;;;;;;;10.06;9.25;;;;;;;15.83;79.17;100045.86;429009;123;922470;-65
2021/06/10 02:53:15;;;;;;;9.24;8.53;;;;;;;15.88;79.17;100047.02;428214;123;922618;-66
2021/06/10 02:54:21;;;;;;;9.37;8.56;;;;;;;15.91;79.15;100044.56;429716;121;922504;-66
2021/06/10 02:55:27;;;;;;;11.28;8.81;;;;;;;15.96;79.14;100043.77;433189;121;922461;-66
2021/06/10 02:56:32;;;;;;;9.11;8.27;;;;;;;16.00;79.00;100040.22;425030;122;922966;-65
2021/06/10 02:57:37;;;;;;;9.12;8.32;;;;;;;16.03;78.80;100042.46;427846;122;922633;-66
2021/06/10 02:58:41;;;;;;;12.36;8.65;;;;;;;16.05;78.57;100051.26;427516;123;922605;-67
2021/06/10 02:59:46;;;;;;;9.16;8.36;;;;;;;16.06;78.45;100049.34;428242;123;930464;-66
2021/06/10 03:00:50;;;;;;;9.59;8.69;;;;;;;16.06;78.41;100047.42;429827;121;923170;-67
2021/06/10 03:01:56;;;;;;;8.64;7.64;;;;;;;16.07;78.33;100046.33;430136;121;922632;-67
2021/06/10 03:03:01;;;;;;;8.06;7.38;;;;;;;16.08;78.30;100044.41;427521;123;922513;-66
2021/06/10 03:04:07;;;;;;;7.84;7.09;;;;;;;16.07;78.30;100054.58;424941;122;922854;-66
2021/06/10 03:05:12;;;;;;;8.57;7.30;;;;;;;16.08;78.34;100049.91;442081;119;922891;-68
2021/06/10 03:06:17;;;;;;;8.54;6.32;;;;;;;16.08;78.32;100050.75;444847;118;922829;-67
2021/06/10 03:07:21;;;;;;;7.38;6.76;;;;;;;16.09;78.29;100051.58;444925;117;922466;-65
2021/06/10 03:08:25;;;;;;;7.62;6.86;;;;;;;16.09;78.29;100059.83;445649;117;925040;-67
2021/06/10 03:09:31;;;;;;;7.18;6.59;;;;;;;16.08;78.27;100053.50;444924;116;925579;-66
2021/06/10 03:10:35;;;;;;;7.69;6.38;;;;;;;16.10;78.31;100059.55;443949;118;926783;-67
2021/06/10 03:11:41;;;;;;;7.22;6.58;;;;;;;16.10;78.32;100061.46;445332;118;924061;-66
2021/06/10 03:12:45;;;;;;;7.52;6.73;;;;;;;16.11;78.38;100061.20;444174;118;924082;-67
2021/06/10 03:13:50;;;;;;;6.72;6.14;;;;;;;16.15;78.43;100061.53;443834;118;925538;-66
2021/06/10 03:14:56;;;;;;;6.54;5.98;;;;;;;16.16;78.33;100061.24;445430;118;924698;-66
2021/06/10 03:16:01;;;;;;;7.56;6.79;;;;;;;16.19;78.18;100065.40;443676;118;923335;-67
2021/06/10 03:17:05;;;;;;;6.98;6.46;;;;;;;16.18;78.10;100064.57;444977;118;926296;-66
2021/06/10 03:18:10;;;;;;;6.36;5.76;;;;;;;16.20;78.08;100064.31;446515;117;924611;-67
2021/06/10 03:19:16;;;;;;;7.19;6.56;;;;;;;16.21;78.05;100066.78;445409;118;924629;-67
2021/06/10 03:20:23;;;;;;;6.86;6.24;;;;;;;16.23;78.04;100067.35;442097;118;924108;-66
2021/06/10 03:21:27;;;;;;;6.47;5.89;;;;;;;16.24;78.06;100065.44;443199;118;924159;-66
2021/06/10 03:22:33;;;;;;;6.13;5.67;;;;;;;16.25;78.07;100072.59;445826;117;923047;-67
2021/06/10 03:23:36;;;;;;;7.34;6.74;;;;;;;16.26;78.05;100066.01;444897;118;926061;-66
2021/06/10 03:24:40;;;;;;;6.78;6.22;;;;;;;16.26;78.01;100068.77;445923;117;924086;-65
2021/06/10 03:25:45;;;;;;;7.26;6.69;;;;;;;16.26;78.00;100061.31;445933;117;924946;-66
2021/06/10 03:26:51;;;;;;;6.82;6.21;;;;;;;16.25;78.06;100056.92;443341;118;925865;-67
2021/06/10 03:27:56;;;;;;;7.41;6.14;;;;;;;16.26;78.18;100060.51;445276;118;925678;-67
2021/06/10 03:29:01;;;;;;;8.20;7.15;;;;;;;16.27;78.22;100056.64;445600;117;923971;-67
2021/06/10 03:30:07;;;;;;;7.54;6.71;;;;;;;16.29;78.24;100059.97;444413;118;924039;-67
2021/06/10 03:31:11;;;;;;;7.70;7.20;;;;;;;16.30;78.25;100061.63;442726;118;925910;-66
2021/06/10 03:32:16;;;;;;;7.48;6.93;;;;;;;16.33;78.28;100065.75;446334;118;923465;-66
2021/06/10 03:33:23;;;;;;;7.61;7.02;;;;;;;16.34;78.23;100061.91;445306;118;924151;-65
2021/06/10 03:34:28;;;;;;;7.82;7.22;;;;;;;16.35;78.21;100067.16;443157;117;924136;-65
2021/06/10 03:35:36;;;;;;;7.63;6.94;;;;;;;16.36;78.18;100063.33;438328;120;925069;-65
2021/06/10 03:36:41;;;;;;;8.08;7.13;;;;;;;16.37;78.16;100066.91;444631;118;924063;-67
2021/06/10 03:37:47;;;;;;;8.23;7.62;;;;;;;16.38;78.11;100069.37;444490;116;924119;-65
2021/06/10 03:38:52;;;;;;;9.11;8.26;;;;;;;16.40;78.08;100064.44;444917;118;924112;-66
2021/06/10 03:39:57;;;;;;;8.82;8.01;;;;;;;16.42;78.08;100070.52;444660;117;923018;-65
2021/06/10 03:41:02;;;;;;;11.34;9.04;;;;;;;16.45;78.10;100069.14;438861;120;924513;-67
2021/06/10 03:42:07;;;;;;;10.75;9.20;;;;;;;16.46;78.13;100065.30;439416;120;924122;-66
2021/06/10 03:43:12;;;;;;;10.01;9.27;;;;;;;16.48;78.08;100068.63;439323;120;924173;-69
2021/06/10 03:44:17;;;;;;;11.97;10.87;;;;;;;16.50;78.08;100060.91;446958;118;922927;-68
2021/06/10 03:45:21;;;;;;;11.72;10.76;;;;;;;16.52;78.07;100067.82;437919;118;922607;-68
2021/06/10 03:46:28;;;;;;;16.12;12.66;;;;;;;16.52;78.04;100062.32;439610;120;922449;-67
2021/06/10 03:47:32;;;;;;;16.95;14.68;;;;;;;16.55;78.02;100063.70;439197;120;922455;-67
2021/06/10 03:48:41;;;;;;;16.28;14.66;;;;;;;16.56;78.00;100060.69;438432;120;922538;-71
2021/06/10 03:49:45;;;;;;;17.09;15.43;;;;;;;16.58;77.95;100068.68;432840;122;930307;-68
2021/06/10 03:50:49;;;;;;;20.55;17.35;;;;;;;16.59;77.90;100056.61;433814;120;922664;-65
2021/06/10 03:51:53;;;;;;;24.92;19.55;;;;;;;16.59;77.83;100062.92;441446;120;923062;-66
2021/06/10 03:52:58;;;;;;;22.86;19.74;;;;;;;16.61;77.82;100060.73;430672;122;927090;-68
2021/06/10 03:54:02;;;;;;;30.88;21.76;;;;;;;16.62;77.82;100067.08;444727;118;922487;-66
2021/06/10 03:55:07;;;;;;;35.32;22.03;;;;;;;16.65;77.75;100061.02;447593;118;922607;-65
2021/06/10 03:56:12;;;;;;;31.68;22.59;;;;;;;16.65;77.73;100059.10;444824;118;922493;-66
2021/06/10 03:57:15;;;;;;;31.26;21.82;;;;;;;16.67;77.61;100065.18;443962;118;922605;-66
2021/06/10 03:58:21;;;;;;;40.00;23.89;;;;;;;16.70;77.56;100060.25;445287;118;922971;-67
2021/06/10 03:59:24;;;;;;;27.62;22.01;;;;;;;16.71;77.49;100064.63;438115;120;926548;-67
2021/06/10 04:00:29;;;;;;;39.17;23.81;;;;;;;16.73;77.48;100055.02;443215;118;922901;-66
2021/06/10 04:01:33;;;;;;;32.36;21.88;;;;;;;16.76;77.42;100059.98;444580;118;922939;-66
2021/06/10 04:02:37;;;;;;;31.18;22.36;;;;;;;16.77;77.41;100050.63;439098;120;922506;-66
2021/06/10 04:03:43;;;;;;;38.26;24.07;;;;;;;16.81;77.39;100057.28;438551;120;923111;-67
2021/06/10 04:04:47;;;;;;;40.18;24.15;;;;;;;16.84;77.35;100058.65;439195;120;924045;-66
2021/06/10 04:05:51;;;;;;;34.36;23.79;;;;;;;16.86;77.26;100054.55;443758;118;923083;-67
2021/06/10 04:06:57;;;;;;;40.61;25.31;;;;;;;16.90;77.13;100058.41;438493;120;926658;-66
2021/06/10 04:08:01;;;;;;;41.92;25.55;;;;;;;16.93;77.08;100054.27;445891;118;922447;-65
2021/06/10 04:09:08;;;;;;;52.54;28.24;;;;;;;16.97;77.07;100060.92;441393;120;924631;-68
2021/06/10 04:10:12;;;;;;;46.37;28.77;;;;;;;16.99;77.03;100056.78;441002;118;924062;-66
2021/06/10 04:11:17;;;;;;;45.86;27.58;;;;;;;17.01;76.89;100060.11;444713;116;924090;-65
2021/06/10 04:12:21;;;;;;;51.88;28.81;;;;;;;17.04;76.81;100061.48;444819;117;922494;-66
2021/06/10 04:13:25;;;;;;;54.73;28.11;;;;;;;17.07;76.74;100061.78;444823;117;924116;-68
2021/06/10 04:14:29;;;;;;;51.80;28.50;;;;;;;17.08;76.73;100057.94;443817;116;926800;-66
2021/06/10 04:15:33;;;;;;;46.70;28.96;;;;;;;17.10;76.65;100063.98;446522;118;925775;-69
2021/06/10 04:16:39;;;;;;;56.89;29.87;;;;;;;17.13;76.72;100059.05;445441;118;932109;-68
2021/06/10 04:17:44;;;;;;;52.86;28.89;;;;;;;17.17;76.74;100065.66;446189;118;923961;-65
2021/06/10 04:18:48;;;;;;;44.55;28.62;;;;;;;17.20;76.67;100059.62;445911;118;923710;-65
2021/06/10 04:19:53;;;;;;;50.38;28.50;;;;;;;17.23;76.67;100067.34;446159;118;923063;-66
2021/06/10 04:20:57;;;;;;;42.92;24.74;;;;;;;17.25;76.66;100070.66;446670;117;926798;-65
2021/06/10 04:22:00;;;;;;;41.06;23.54;;;;;;;17.27;76.63;100057.42;443056;118;923086;-67
2021/06/10 04:23:04;;;;;;;35.05;22.41;;;;;;;17.30;76.68;100059.65;443798;117;933024;-65
2021/06/10 04:24:08;;;;;;;32.69;21.14;;;;;;;17.33;76.71;100068.19;443852;118;930375;-66
2021/06/10 04:25:12;;;;;;;38.59;21.18;;;;;;;17.36;76.59;100064.08;444347;118;924774;-64
2021/06/10 04:26:18;;;;;;;39.28;21.51;;;;;;;17.40;76.49;100060.50;445758;116;932361;-66
2021/06/10 04:27:22;;;;;;;35.09;22.42;;;;;;;17.42;76.45;100063.80;444765;117;924022;-66
2021/06/10 04:28:26;;;;;;;34.95;22.95;;;;;;;17.44;76.40;100067.12;444673;118;922873;-66
2021/06/10 04:29:30;;;;;;;35.36;22.94;;;;;;;17.47;76.40;100065.76;445093;118;924070;-67
2021/06/10 04:30:34;;;;;;;30.54;21.36;;;;;;;17.49;76.37;100056.09;445204;117;928472;-65
2021/06/10 04:31:38;;;;;;;27.52;18.82;;;;;;;17.52;76.38;100063.01;443738;118;925474;-67
2021/06/10 04:32:45;;;;;;;30.32;20.69;;;;;;;17.56;76.35;100063.28;444522;118;923031;-65
2021/06/10 04:33:49;;;;;;;30.70;20.17;;;;;;;17.58;76.29;100061.92;446673;118;925615;-67
2021/06/10 04:34:53;;;;;;;33.91;22.24;;;;;;;17.61;76.13;100063.31;444504;118;922508;-66
2021/06/10 04:35:57;;;;;;;29.56;21.48;;;;;;;17.65;76.01;100058.90;445540;118;922478;-66
2021/06/10 04:37:01;;;;;;;32.31;21.65;;;;;;;17.67;76.01;100068.56;445798;116;923533;-66
2021/06/10 04:38:06;;;;;;;33.59;19.79;;;;;;;17.71;75.79;100066.91;447196;118;926173;-67
2021/06/10 04:39:11;;;;;;;29.40;20.46;;;;;;;17.74;75.67;100065.55;446647;118;924033;-66
2021/06/10 04:40:16;;;;;;;29.67;19.26;;;;;;;17.76;75.54;100066.09;441565;118;924079;-66
2021/06/10 04:41:21;;;;;;;25.49;17.88;;;;;;;17.78;75.48;100064.72;445023;118;931815;-67
2021/06/10 04:42:25;;;;;;;32.32;18.54;;;;;;;17.80;75.35;100081.00;444876;118;929992;-67
2021/06/10 04:43:29;;;;;;;27.50;17.61;;;;;;;17.83;75.39;100063.89;445815;118;930226;-67
2021/06/10 04:44:32;;;;;;;26.12;19.32;;;;;;;17.84;75.34;100062.80;447517;118;922703;-66
2021/06/10 04:45:37;;;;;;;27.09;17.98;;;;;;;17.86;75.36;100075.19;444752;117;922476;-64
2021/06/10 04:46:41;;;;;;;20.97;15.69;;;;;;;17.89;75.43;100066.38;445249;118;930612;-67
2021/06/10 04:47:44;;;;;;;15.42;13.28;;;;;;;17.93;75.36;100070.23;446675;118;922963;-67
2021/06/10 04:48:48;;;;;;;17.59;12.68;;;;;;;17.96;75.21;100068.04;445781;118;923059;-68
2021/06/10 04:49:52;;;;;;;14.63;12.93;;;;;;;18.01;75.13;100076.31;445867;118;922881;-64
2021/06/10 04:50:55;;;;;;;13.35;11.62;;;;;;;18.01;75.13;100076.31;446675;118;925718;-72
2021/06/10 04:52:00;;;;;;;17.89;12.60;;;;;;;18.03;75.02;100074.13;448003;117;922473;-72
2021/06/10 04:53:13;;;;;;;15.58;11.74;;;;;;;18.04;74.99;100073.82;447096;118;922908;-72
2021/06/10 04:54:49;;;;;;;15.24;11.42;;;;;;;18.06;74.95;100070.80;446795;118;924172;-72
2021/06/10 04:56:20;;;;;;;13.37;11.97;;;;;;;18.07;74.91;100072.45;442916;118;922804;-69